createdAt,value
2018-07-31T00:10:13.825Z,2.90
2018-07-31T00:13:05.979Z,3.13
2018-07-31T00:15:48.739Z,2.90
2018-07-31T00:18:31.367Z,3.10
2018-07-31T00:22:10.169Z,2.90
2018-07-31T00:24:51.363Z,2.97
2018-07-31T00:27:37.437Z,3.90
2018-07-31T00:30:40.469Z,3.00
2018-07-31T00:36:07.533Z,2.80
2018-07-31T00:38:53.139Z,2.77
2018-07-31T00:41:30.853Z,3.20
2018-07-31T00:44:17.650Z,4.30
2018-07-31T00:47:13.434Z,3.40
2018-07-31T00:50:08.567Z,2.90
2018-07-31T00:52:50.321Z,3.60
2018-07-31T00:55:36.345Z,3.33
2018-07-31T00:58:12.358Z,2.80
2018-07-31T01:00:54.927Z,3.00
2018-07-31T01:03:48.332Z,3.17
2018-07-31T01:06:39.925Z,3.90
2018-07-31T01:09:27.428Z,3.83
2018-07-31T01:21:00.728Z,3.30
2018-07-31T01:32:04.406Z,4.37
2018-07-31T01:34:49.139Z,4.03
2018-07-31T01:37:28.192Z,4.40
2018-07-31T01:40:06.765Z,3.70
2018-07-31T01:47:56.278Z,8.90
2018-07-31T01:50:33.794Z,5.50
2018-07-31T01:53:21.368Z,6.50
2018-07-31T01:56:10.186Z,5.30
2018-07-31T01:58:56.542Z,5.37
2018-07-31T02:01:39.997Z,5.50
2018-07-31T02:04:29.827Z,5.50
2018-07-31T02:07:10.859Z,6.60
2018-07-31T02:10:01.308Z,6.10
2018-07-31T02:12:39.849Z,6.33
2018-07-31T02:15:33.099Z,4.93
2018-07-31T02:18:17.521Z,7.00
2018-07-31T02:21:04.847Z,6.17
2018-07-31T02:23:40.646Z,7.60
2018-07-31T02:26:23.632Z,6.80
2018-07-31T02:28:59.856Z,7.40
2018-07-31T02:31:45.880Z,6.53
2018-07-31T02:34:26.392Z,6.50
2018-07-31T02:37:08.319Z,8.00
2018-07-31T02:39:51.904Z,7.03
2018-07-31T02:42:38.157Z,6.60
2018-07-31T02:45:15.966Z,7.23
2018-07-31T02:47:50.959Z,7.40
2018-07-31T02:50:23.322Z,6.87
2018-07-31T02:53:14.231Z,7.10
2018-07-31T02:55:59.408Z,9.60
2018-07-31T02:58:41.613Z,8.07
2018-07-31T03:01:32.267Z,8.70
2018-07-31T03:04:15.485Z,8.20
2018-07-31T03:07:00.129Z,6.43
2018-07-31T03:09:35.617Z,7.87
2018-07-31T03:12:12.841Z,7.00
2018-07-31T03:14:49.592Z,6.67
2018-07-31T03:17:34.604Z,6.30
2018-07-31T03:20:11.425Z,6.93
2018-07-31T03:22:49.329Z,10.93
2018-07-31T03:25:30.469Z,9.13
2018-07-31T03:28:09.493Z,8.80
2018-07-31T03:30:51.471Z,7.63
2018-07-31T03:33:32.920Z,7.60
2018-07-31T03:36:16.140Z,6.67
2018-07-31T03:39:07.320Z,6.90
2018-07-31T03:41:54.857Z,6.80
2018-07-31T03:44:31.101Z,7.10
2018-07-31T03:47:21.402Z,6.47
2018-07-31T03:50:13.849Z,6.90
2018-07-31T03:53:00.263Z,7.87
2018-07-31T03:55:41.837Z,8.37
2018-07-31T03:58:22.406Z,9.97
2018-07-31T04:01:02.518Z,11.43
2018-07-31T04:03:44.151Z,7.53
2018-07-31T04:06:32.440Z,7.70
2018-07-31T04:09:24.876Z,7.50
2018-07-31T04:12:02.336Z,7.40
2018-07-31T04:17:42.869Z,7.57
2018-07-31T04:20:15.536Z,6.10
2018-07-31T04:23:01.227Z,6.87
2018-07-31T04:25:47.800Z,8.27
2018-07-31T04:28:41.074Z,7.57
2018-07-31T04:31:22.710Z,7.20
2018-07-31T04:34:15.162Z,6.90
2018-07-31T04:37:04.248Z,7.03
2018-07-31T04:39:50.130Z,6.70
2018-07-31T04:42:28.402Z,7.67
2018-07-31T04:45:14.406Z,7.23
2018-07-31T04:53:43.993Z,6.73
2018-07-31T04:56:21.656Z,6.50
2018-07-31T04:59:24.940Z,8.37
2018-07-31T05:02:15.506Z,7.10
2018-07-31T05:04:51.023Z,6.50
2018-07-31T05:07:43.371Z,7.80
2018-07-31T05:10:39.267Z,9.10
2018-07-31T05:13:17.476Z,7.60
2018-07-31T05:16:13.753Z,6.90
2018-07-31T05:18:54.780Z,6.60
2018-07-31T05:21:37.290Z,8.33
2018-07-31T05:24:22.694Z,8.47
2018-07-31T05:36:24.991Z,8.43
2018-07-31T05:42:28.803Z,7.60
2018-07-31T15:44:38.152Z,1.77
2018-07-31T15:50:20.580Z,2.43
2018-07-31T15:53:54.296Z,1.83
2018-07-31T16:03:58.466Z,2.73
2018-07-31T16:06:48.397Z,2.67
2018-07-31T16:25:03.241Z,2.83
2018-07-31T16:39:40.032Z,10.30
2018-07-31T16:42:24.896Z,3.10
2018-07-31T16:49:25.519Z,2.83
2018-07-31T16:58:40.769Z,2.13
2018-07-31T17:43:19.526Z,2.98
2018-07-31T19:25:59.611Z,2.20
2018-07-31T19:28:54.954Z,3.63
2018-07-31T19:31:53.930Z,2.47
2018-07-31T19:43:52.728Z,1.93
2018-07-31T19:56:10.198Z,2.80
2018-07-31T20:01:51.073Z,2.10
2018-07-31T20:17:48.280Z,2.67
2018-07-31T20:28:24.699Z,2.80
2018-07-31T20:36:13.840Z,2.73
2018-07-31T21:31:21.781Z,1.80
2018-07-31T21:34:14.251Z,2.15
2018-07-31T21:44:11.575Z,2.60
2018-07-31T21:49:36.277Z,2.17
2018-07-31T21:58:36.478Z,1.40
2018-07-31T22:12:48.592Z,1.47
2018-07-31T22:29:23.544Z,1.87
2018-07-31T22:32:13.345Z,1.27
2018-07-31T22:35:23.975Z,1.60
2018-07-31T22:38:18.684Z,1.20
2018-07-31T22:41:13.287Z,2.80
2018-07-31T22:44:06.652Z,1.97
2018-07-31T22:56:49.144Z,2.08
2018-07-31T23:03:11.629Z,1.60
2018-07-31T23:06:02.621Z,2.00
2018-07-31T23:12:56.682Z,2.00
2018-07-31T23:34:35.333Z,1.70
2018-07-31T23:37:27.214Z,1.90
2018-07-31T23:40:51.189Z,1.43
2018-07-31T23:43:34.867Z,1.50
2018-07-31T23:49:39.853Z,1.90
